createdAt,value
2017-06-16T00:01:01.326Z,66.50
2017-06-16T00:03:31.014Z,67.30
2017-06-16T00:06:00.683Z,67.00
2017-06-16T00:08:30.353Z,67.70
2017-06-16T00:11:00.038Z,67.00
2017-06-16T00:13:29.763Z,68.50
2017-06-16T00:16:00.627Z,68.50
2017-06-16T00:18:30.369Z,68.50
2017-06-16T00:21:00.070Z,68.50
2017-06-16T00:23:29.820Z,68.40
2017-06-16T00:25:59.509Z,68.40
2017-06-16T00:28:29.241Z,68.50
2017-06-16T00:30:59.035Z,68.20
2017-06-16T00:33:28.722Z,68.20
2017-06-16T00:35:58.416Z,68.20
2017-06-16T00:38:29.302Z,68.60
2017-06-16T00:40:59.020Z,68.70
2017-06-16T00:43:28.689Z,68.90
2017-06-16T00:45:58.393Z,68.20
2017-06-16T00:48:28.085Z,68.50
2017-06-16T00:50:57.762Z,69.00
2017-06-16T00:53:27.489Z,68.20
2017-06-16T00:55:57.214Z,68.10
2017-06-16T00:58:26.970Z,68.80
2017-06-16T01:00:56.684Z,69.20
2017-06-16T01:03:26.354Z,68.10
2017-06-16T01:05:56.075Z,68.90
2017-06-16T01:08:25.776Z,69.10
2017-06-16T01:10:55.631Z,68.50
2017-06-16T01:13:25.327Z,68.10
2017-06-16T01:15:54.994Z,68.00
2017-06-16T01:18:24.764Z,68.70
2017-06-16T01:20:54.595Z,68.10
2017-06-16T01:23:24.364Z,68.00
2017-06-16T01:25:54.042Z,68.00
2017-06-16T01:28:24.208Z,68.40
2017-06-16T01:30:53.953Z,68.30
2017-06-16T01:33:23.758Z,68.70
2017-06-16T01:35:53.635Z,68.00
2017-06-16T01:38:23.445Z,68.50
2017-06-16T01:40:54.343Z,68.70
2017-06-16T01:43:24.045Z,68.70
2017-06-16T01:45:53.749Z,69.00
2017-06-16T01:48:23.449Z,68.40
2017-06-16T01:50:54.616Z,68.50
2017-06-16T01:53:24.467Z,68.60
2017-06-16T01:55:54.134Z,68.50
2017-06-16T01:58:23.809Z,68.60
2017-06-16T02:00:53.494Z,68.60
2017-06-16T02:03:23.171Z,68.60
2017-06-16T02:05:52.854Z,68.90
2017-06-16T02:08:22.517Z,69.10
2017-06-16T02:10:52.206Z,68.90
2017-06-16T02:13:21.931Z,69.00
2017-06-16T02:15:52.780Z,69.00
2017-06-16T02:18:22.495Z,69.40
2017-06-16T02:20:52.213Z,69.20
2017-06-16T02:23:21.895Z,69.10
2017-06-16T02:25:51.886Z,69.40
2017-06-16T02:28:23.110Z,69.10
2017-06-16T02:30:53.218Z,69.70
2017-06-16T02:33:23.218Z,69.50
2017-06-16T02:35:53.247Z,69.60
2017-06-16T02:38:23.091Z,69.20
2017-06-16T02:40:53.209Z,69.30
2017-06-16T02:43:23.366Z,69.60
2017-06-16T02:45:53.470Z,69.50
2017-06-16T02:48:23.889Z,69.70
2017-06-16T02:50:56.466Z,69.30
2017-06-16T02:53:27.495Z,69.90
2017-06-16T02:55:57.309Z,69.90
2017-06-16T02:58:27.285Z,69.40
2017-06-16T03:00:57.779Z,69.70
2017-06-16T03:03:27.506Z,69.30
2017-06-16T03:05:57.222Z,69.80
2017-06-16T03:08:26.943Z,69.70
2017-06-16T03:10:56.757Z,69.70
2017-06-16T03:13:26.874Z,70.10
2017-06-16T03:15:56.935Z,70.20
2017-06-16T03:18:26.625Z,70.20
2017-06-16T03:21:00.412Z,70.50
2017-06-16T03:23:31.293Z,70.70
2017-06-16T03:26:00.961Z,70.90
2017-06-16T03:28:30.630Z,70.90
2017-06-16T03:31:00.729Z,71.30
2017-06-16T03:33:30.898Z,71.20
2017-06-16T03:36:00.761Z,70.90
2017-06-16T03:38:30.984Z,70.70
2017-06-16T03:41:01.104Z,70.80
2017-06-16T03:43:31.106Z,71.10
2017-06-16T03:46:00.890Z,70.70
2017-06-16T03:48:31.056Z,71.20
2017-06-16T03:51:00.867Z,71.70
2017-06-16T03:53:30.637Z,71.80
2017-06-16T03:56:00.694Z,71.60
2017-06-16T03:58:30.716Z,71.50
2017-06-16T04:01:00.517Z,72.10
2017-06-16T04:03:32.337Z,72.30
2017-06-16T04:06:02.401Z,72.10
2017-06-16T04:08:32.346Z,72.10
2017-06-16T04:11:02.349Z,72.20
2017-06-16T04:13:33.075Z,72.30
2017-06-16T04:16:03.195Z,72.20
2017-06-16T04:18:55.729Z,72.40
2017-06-16T04:21:26.061Z,72.30
2017-06-16T04:23:56.230Z,72.10
2017-06-16T04:26:26.105Z,71.80
2017-06-16T04:28:56.335Z,72.20
2017-06-16T04:31:27.152Z,72.10
2017-06-16T04:33:57.146Z,72.00
2017-06-16T04:36:26.813Z,71.30
2017-06-16T04:38:56.902Z,71.40
2017-06-16T04:41:26.676Z,71.50
2017-06-16T04:43:56.726Z,71.60
2017-06-16T04:46:26.425Z,71.70
2017-06-16T04:48:56.268Z,72.20
2017-06-16T04:51:27.090Z,71.70
2017-06-16T04:53:57.242Z,72.40
2017-06-16T04:56:28.564Z,72.40
2017-06-16T04:58:58.425Z,72.30
2017-06-16T05:01:30.357Z,72.40
2017-06-16T05:04:07.947Z,72.30
2017-06-16T05:06:38.052Z,71.70
2017-06-16T05:09:08.392Z,71.30
2017-06-16T05:11:39.101Z,71.50
2017-06-16T05:14:08.930Z,71.30
2017-06-16T05:16:38.799Z,70.50
2017-06-16T05:19:08.977Z,70.80
2017-06-16T05:21:46.887Z,71.00
2017-06-16T05:24:21.368Z,71.00
2017-06-16T05:26:51.428Z,70.80
2017-06-16T05:29:22.224Z,70.20
2017-06-16T05:31:54.388Z,69.10
2017-06-16T05:34:25.608Z,69.30
2017-06-16T05:36:55.995Z,69.50
2017-06-16T05:39:25.983Z,68.00
2017-06-16T05:41:56.207Z,68.70
2017-06-16T05:44:26.694Z,68.10
2017-06-16T05:46:57.073Z,68.10
2017-06-16T05:49:26.953Z,67.90
2017-06-16T05:51:57.345Z,67.90
2017-06-16T05:54:27.798Z,68.00
2017-06-16T05:56:58.345Z,68.00
2017-06-16T05:59:28.778Z,67.20
2017-06-16T06:02:00.096Z,67.20
2017-06-16T06:04:30.681Z,65.90
2017-06-16T06:07:00.708Z,65.70
2017-06-16T06:09:36.503Z,66.70
2017-06-16T06:12:06.206Z,65.90
2017-06-16T06:14:35.921Z,65.10
2017-06-16T06:17:05.630Z,64.00
2017-06-16T06:19:35.322Z,63.60
2017-06-16T06:22:05.249Z,63.80
2017-06-16T06:24:34.933Z,64.60
2017-06-16T06:27:04.622Z,65.10
2017-06-16T06:29:34.290Z,64.50
2017-06-16T06:32:03.993Z,64.60
2017-06-16T06:34:34.169Z,64.20
2017-06-16T06:37:03.847Z,63.20
2017-06-16T06:39:33.547Z,62.30
2017-06-16T06:42:03.290Z,62.40
2017-06-16T06:44:33.062Z,63.90
2017-06-16T06:47:03.115Z,64.10
2017-06-16T06:49:32.801Z,63.70
2017-06-16T06:52:02.469Z,62.70
2017-06-16T06:54:32.159Z,61.70
2017-06-16T06:57:01.838Z,61.40
2017-06-16T06:59:31.519Z,60.10
2017-06-16T07:02:01.203Z,61.20
2017-06-16T07:04:30.874Z,58.70
2017-06-16T07:07:00.713Z,58.20
2017-06-16T07:09:30.434Z,58.50
2017-06-16T07:12:00.098Z,59.20
2017-06-16T07:14:30.907Z,59.40
2017-06-16T07:17:00.569Z,58.50
2017-06-16T07:19:30.497Z,59.10
2017-06-16T07:22:00.781Z,59.00
2017-06-16T07:24:31.282Z,59.00
2017-06-16T07:27:00.974Z,57.70
2017-06-16T07:29:30.665Z,58.20
2017-06-16T07:32:01.140Z,58.20
2017-06-16T07:34:30.802Z,58.80
2017-06-16T07:37:00.469Z,58.70
2017-06-16T07:39:32.515Z,58.40
2017-06-16T07:42:02.174Z,58.10
2017-06-16T07:44:31.900Z,57.20
2017-06-16T07:47:01.582Z,57.70
2017-06-16T07:49:32.210Z,57.20
2017-06-16T07:52:01.876Z,57.80
2017-06-16T07:54:31.547Z,56.50
2017-06-16T07:57:01.238Z,56.60
2017-06-16T07:59:30.918Z,55.30
2017-06-16T08:02:00.582Z,55.50
2017-06-16T08:04:30.242Z,55.90
2017-06-16T08:07:00.321Z,56.70
2017-06-16T08:09:30.018Z,56.20
2017-06-16T08:11:59.689Z,55.40
2017-06-16T08:14:29.364Z,55.70
2017-06-16T08:16:59.057Z,56.50
2017-06-16T08:19:28.746Z,56.50
2017-06-16T08:22:02.547Z,56.10
2017-06-16T08:24:32.422Z,55.60
2017-06-16T08:27:02.104Z,56.20
2017-06-16T08:29:31.789Z,56.30
2017-06-16T08:32:02.366Z,56.00
2017-06-16T08:34:32.041Z,56.00
2017-06-16T08:37:01.715Z,55.00
2017-06-16T08:39:31.402Z,54.90
2017-06-16T08:42:01.067Z,56.50
2017-06-16T08:44:31.265Z,56.40
2017-06-16T08:47:00.946Z,56.70
2017-06-16T08:49:30.622Z,57.30
2017-06-16T08:52:00.302Z,55.80
2017-06-16T08:54:29.958Z,54.30
2017-06-16T08:56:59.625Z,55.90
2017-06-16T08:59:29.315Z,54.80
2017-06-16T09:01:59.239Z,54.50
2017-06-16T09:04:29.320Z,55.40
2017-06-16T09:07:00.690Z,53.50
2017-06-16T09:09:30.409Z,53.60
2017-06-16T09:12:00.089Z,51.50
2017-06-16T09:14:29.755Z,51.30
2017-06-16T09:16:59.692Z,49.60
2017-06-16T09:19:29.402Z,49.90
2017-06-16T09:21:59.086Z,51.00
2017-06-16T09:24:28.781Z,48.30
2017-06-16T09:26:58.861Z,50.80
2017-06-16T09:29:30.214Z,49.20
2017-06-16T09:31:59.938Z,48.90
2017-06-16T09:34:29.625Z,49.30
2017-06-16T09:36:59.582Z,48.90
2017-06-16T09:39:29.330Z,48.30
2017-06-16T09:41:59.100Z,47.30
2017-06-16T09:44:28.793Z,47.70
2017-06-16T09:47:00.952Z,47.40
2017-06-16T09:49:31.177Z,47.80
2017-06-16T09:52:00.878Z,47.50
2017-06-16T09:54:32.210Z,46.20
2017-06-16T09:57:02.058Z,47.50
2017-06-16T09:59:33.165Z,48.50
2017-06-16T10:02:07.394Z,47.90
2017-06-16T10:04:37.109Z,50.20
2017-06-16T10:07:06.801Z,50.30
2017-06-16T10:09:36.598Z,50.70
2017-06-16T10:12:06.281Z,50.10
2017-06-16T10:14:35.955Z,50.30
2017-06-16T10:17:05.640Z,49.00
2017-06-16T10:19:35.325Z,48.40
2017-06-16T10:22:05.102Z,48.50
2017-06-16T10:24:34.761Z,47.80
2017-06-16T10:27:04.471Z,46.90
2017-06-16T10:29:34.214Z,46.70
2017-06-16T10:32:03.910Z,46.40
2017-06-16T10:34:33.574Z,46.20
2017-06-16T10:37:03.262Z,45.00
2017-06-16T10:39:32.954Z,47.80
2017-06-16T10:42:02.635Z,48.00
2017-06-16T10:44:32.355Z,47.00
2017-06-16T10:47:02.041Z,47.70
2017-06-16T10:49:31.750Z,46.50
2017-06-16T10:52:01.443Z,45.20
2017-06-16T10:54:31.145Z,45.50
2017-06-16T10:57:00.921Z,44.70
2017-06-16T10:59:30.622Z,45.60
2017-06-16T11:02:00.309Z,45.40
2017-06-16T11:04:30.041Z,45.80
2017-06-16T11:06:59.991Z,42.70
2017-06-16T11:09:30.413Z,42.50
2017-06-16T11:12:00.088Z,43.80
2017-06-16T11:14:29.765Z,42.70
2017-06-16T11:16:59.457Z,42.40
2017-06-16T11:19:29.154Z,43.20
2017-06-16T11:21:58.846Z,45.20
2017-06-16T11:24:28.514Z,44.70
2017-06-16T11:27:04.022Z,44.70
2017-06-16T11:29:34.097Z,45.20
2017-06-16T11:32:04.277Z,42.50
2017-06-16T11:34:36.578Z,42.70
2017-06-16T11:37:10.246Z,42.80
2017-06-16T11:39:40.140Z,42.50
2017-06-16T11:42:10.029Z,39.40
2017-06-16T11:44:40.074Z,40.50
2017-06-16T11:47:09.775Z,42.60
2017-06-16T11:49:39.606Z,42.30
2017-06-16T11:52:09.438Z,43.70
2017-06-16T11:54:39.274Z,45.20
2017-06-16T11:57:10.027Z,45.90
2017-06-16T11:59:40.231Z,46.00
2017-06-16T12:02:09.973Z,45.40
2017-06-16T12:04:39.658Z,45.30
2017-06-16T12:07:10.930Z,44.20
2017-06-16T12:09:40.949Z,44.30
2017-06-16T12:12:10.653Z,43.40
2017-06-16T12:14:40.331Z,44.40
2017-06-16T12:17:09.990Z,45.60
2017-06-16T12:19:39.689Z,44.60
2017-06-16T12:22:10.341Z,45.00
2017-06-16T12:24:42.144Z,45.50
2017-06-16T12:27:12.528Z,45.60
2017-06-16T12:29:42.534Z,45.70
2017-06-16T12:32:12.219Z,44.70
2017-06-16T12:34:41.910Z,45.00
2017-06-16T12:37:12.950Z,43.40
2017-06-16T12:39:42.649Z,42.60
2017-06-16T12:42:12.349Z,42.80
2017-06-16T12:44:42.039Z,41.20
2017-06-16T12:47:11.704Z,42.00
2017-06-16T12:49:41.402Z,42.20
2017-06-16T12:52:12.029Z,40.80
2017-06-16T12:54:41.714Z,42.40
2017-06-16T12:57:11.385Z,43.90
2017-06-16T12:59:41.971Z,44.80
2017-06-16T13:02:11.678Z,43.70
2017-06-16T13:04:45.418Z,44.30
2017-06-16T13:07:19.626Z,44.00
2017-06-16T13:09:49.823Z,43.50
2017-06-16T13:12:19.489Z,42.70
2017-06-16T13:14:49.251Z,42.20
2017-06-16T13:17:19.721Z,42.00
2017-06-16T13:19:49.814Z,42.80
2017-06-16T13:22:20.406Z,43.50
2017-06-16T13:24:50.140Z,43.20
2017-06-16T13:27:19.851Z,43.70
2017-06-16T13:29:49.553Z,41.30
2017-06-16T13:32:19.840Z,38.70
2017-06-16T13:34:49.513Z,40.50
2017-06-16T13:37:19.435Z,42.00
2017-06-16T13:39:49.111Z,42.20
2017-06-16T13:42:19.066Z,43.10
2017-06-16T13:44:49.794Z,42.00
2017-06-16T13:47:19.517Z,40.90
2017-06-16T13:49:49.189Z,40.20
2017-06-16T13:52:18.905Z,38.90
2017-06-16T13:54:49.740Z,38.20
2017-06-16T13:57:19.443Z,38.50
2017-06-16T13:59:49.330Z,37.50
2017-06-16T14:02:18.998Z,36.40
2017-06-16T14:04:48.917Z,37.50
2017-06-16T14:07:18.609Z,35.70
2017-06-16T14:09:48.857Z,36.20
2017-06-16T14:12:19.130Z,36.80
2017-06-16T14:14:48.827Z,37.60
2017-06-16T14:17:18.529Z,38.60
2017-06-16T14:19:49.699Z,39.20
2017-06-16T14:22:19.377Z,37.60
2017-06-16T14:24:50.150Z,36.30
2017-06-16T14:27:19.858Z,36.60
2017-06-16T14:29:49.566Z,37.60
2017-06-16T14:32:20.931Z,37.60
2017-06-16T14:34:55.098Z,37.80
2017-06-16T14:37:27.914Z,37.90
2017-06-16T14:39:57.766Z,38.10
2017-06-16T14:42:27.746Z,37.80
2017-06-16T14:44:57.469Z,38.50
2017-06-16T14:47:27.128Z,38.60
2017-06-16T14:49:56.818Z,39.20
2017-06-16T14:52:26.614Z,39.10
2017-06-16T14:54:56.494Z,39.70
2017-06-16T14:57:26.187Z,39.40
2017-06-16T14:59:57.122Z,40.10
2017-06-16T15:02:28.124Z,40.90
2017-06-16T15:04:58.484Z,41.00
2017-06-16T15:07:28.185Z,41.60
2017-06-16T15:09:58.727Z,41.80
2017-06-16T15:12:28.404Z,42.90
2017-06-16T15:14:58.075Z,42.50
2017-06-16T15:17:27.809Z,43.50
2017-06-16T15:19:58.018Z,43.50
2017-06-16T15:22:31.752Z,43.50
2017-06-16T15:25:01.441Z,42.90
2017-06-16T15:27:31.114Z,43.20
2017-06-16T15:30:01.066Z,41.70
2017-06-16T15:32:31.909Z,41.40
2017-06-16T15:35:01.574Z,41.30
2017-06-16T15:37:32.622Z,41.50
2017-06-16T15:40:03.596Z,40.50
2017-06-16T15:42:33.534Z,41.50
2017-06-16T15:45:03.381Z,40.60
2017-06-16T15:47:33.098Z,39.80
2017-06-16T15:50:02.805Z,40.00
2017-06-16T15:52:32.734Z,41.30
2017-06-16T15:55:02.442Z,41.30
2017-06-16T15:57:32.117Z,41.10
2017-06-16T16:00:01.785Z,39.60
2017-06-16T16:02:32.022Z,39.30
2017-06-16T16:05:02.551Z,40.00
2017-06-16T16:07:32.243Z,39.60
2017-06-16T16:10:06.094Z,41.30
2017-06-16T16:12:36.115Z,41.30
2017-06-16T16:15:05.871Z,41.30
2017-06-16T16:17:36.056Z,41.40
2017-06-16T16:20:05.822Z,41.30
2017-06-16T16:22:35.755Z,41.10
2017-06-16T16:25:05.439Z,41.10
2017-06-16T16:27:35.122Z,40.90
2017-06-16T16:30:05.013Z,40.60
2017-06-16T16:32:34.719Z,41.70
2017-06-16T16:35:04.414Z,41.00
2017-06-16T16:37:34.098Z,40.50
2017-06-16T16:40:03.778Z,41.90
2017-06-16T16:42:33.470Z,41.70
2017-06-16T16:45:03.245Z,41.90
2017-06-16T16:47:34.241Z,40.90
2017-06-16T16:50:03.926Z,41.00
2017-06-16T16:52:33.685Z,40.50
2017-06-16T16:55:03.422Z,41.30
2017-06-16T16:57:33.242Z,40.90
2017-06-16T17:00:07.213Z,41.10
2017-06-16T17:02:38.975Z,42.60
2017-06-16T17:05:11.285Z,42.90
2017-06-16T17:07:41.675Z,43.20
2017-06-16T17:10:11.597Z,44.00
2017-06-16T17:12:42.053Z,45.00
2017-06-16T17:15:17.922Z,44.60
2017-06-16T17:17:47.635Z,44.40
2017-06-16T17:20:18.270Z,44.90
2017-06-16T17:22:48.534Z,44.90
2017-06-16T17:25:18.366Z,44.40
2017-06-16T17:27:49.891Z,45.10
2017-06-16T17:30:20.541Z,45.00
2017-06-16T17:32:50.307Z,44.80
2017-06-16T17:35:20.142Z,45.50
2017-06-16T17:37:52.604Z,45.30
2017-06-16T17:40:22.752Z,45.40
2017-06-16T17:42:54.029Z,44.80
2017-06-16T17:45:25.532Z,46.00
2017-06-16T17:47:56.002Z,45.80
2017-06-16T17:50:25.846Z,45.80
2017-06-16T17:52:55.967Z,46.20
2017-06-16T17:55:26.035Z,46.80
2017-06-16T17:57:55.917Z,46.30
2017-06-16T18:00:26.371Z,46.80
2017-06-16T18:02:56.366Z,46.80
2017-06-16T18:05:26.099Z,47.20
2017-06-16T18:07:56.403Z,47.40
2017-06-16T18:10:26.111Z,48.00
2017-06-16T18:12:59.813Z,47.30
2017-06-16T18:15:29.748Z,47.60
2017-06-16T18:17:59.635Z,48.10
2017-06-16T18:20:29.921Z,47.20
2017-06-16T18:23:00.994Z,47.80
2017-06-16T18:25:34.868Z,47.90
2017-06-16T18:28:05.708Z,47.10
2017-06-16T18:30:37.040Z,47.50
2017-06-16T18:33:07.229Z,47.10
2017-06-16T18:35:42.372Z,46.80
2017-06-16T18:38:17.786Z,46.90
2017-06-16T18:40:48.601Z,45.70
2017-06-16T18:43:18.339Z,46.80
2017-06-16T18:45:48.065Z,45.90
2017-06-16T18:48:18.698Z,46.20
2017-06-16T18:50:48.434Z,46.90
2017-06-16T18:53:18.373Z,46.60
2017-06-16T18:55:51.274Z,46.40
2017-06-16T18:58:22.877Z,45.50
2017-06-16T19:00:56.641Z,44.20
2017-06-16T19:03:26.680Z,42.90
2017-06-16T19:05:57.249Z,42.80
2017-06-16T19:08:27.047Z,42.70
2017-06-16T19:10:56.799Z,41.90
2017-06-16T19:13:27.364Z,44.10
2017-06-16T19:15:57.142Z,44.40
2017-06-16T19:18:26.875Z,46.00
2017-06-16T19:20:56.825Z,46.70
2017-06-16T19:23:26.558Z,47.40
2017-06-16T19:25:56.288Z,48.40
2017-06-16T19:28:27.307Z,48.30
2017-06-16T19:30:57.449Z,48.50
2017-06-16T19:33:27.426Z,49.00
2017-06-16T19:35:57.663Z,49.50
2017-06-16T19:38:27.584Z,50.20
2017-06-16T19:40:57.505Z,50.60
2017-06-16T19:43:27.625Z,50.50
2017-06-16T19:45:57.706Z,51.20
2017-06-16T19:48:27.694Z,52.00
2017-06-16T19:50:57.642Z,51.70
2017-06-16T19:53:27.635Z,52.00
2017-06-16T19:55:57.732Z,52.30
2017-06-16T19:58:27.708Z,52.60
2017-06-16T20:00:57.510Z,52.80
2017-06-16T20:03:31.486Z,52.90
2017-06-16T20:06:03.146Z,53.20
2017-06-16T20:08:34.187Z,53.40
2017-06-16T20:11:04.043Z,53.70
2017-06-16T20:13:36.119Z,53.80
2017-06-16T20:16:08.250Z,53.60
2017-06-16T20:18:37.968Z,53.40
2017-06-16T20:21:07.686Z,53.90
2017-06-16T20:23:37.421Z,53.60
2017-06-16T20:26:10.622Z,54.20
2017-06-16T20:28:40.562Z,54.00
2017-06-16T20:31:14.099Z,54.20
2017-06-16T20:33:44.467Z,54.70
2017-06-16T20:36:14.907Z,54.70
2017-06-16T20:38:44.997Z,54.90
2017-06-16T20:41:16.260Z,55.00
2017-06-16T20:43:46.270Z,55.70
2017-06-16T20:46:16.246Z,55.50
2017-06-16T20:48:46.002Z,55.60
2017-06-16T20:51:18.006Z,55.90
2017-06-16T20:53:47.768Z,55.60
2017-06-16T20:56:18.011Z,56.20
2017-06-16T20:58:47.886Z,55.70
2017-06-16T21:01:17.581Z,56.10
2017-06-16T21:03:47.269Z,56.10
2017-06-16T21:06:17.240Z,56.10
2017-06-16T21:08:46.986Z,56.10
2017-06-16T21:11:16.758Z,56.00
2017-06-16T21:13:46.458Z,56.00
2017-06-16T21:16:16.167Z,56.00
2017-06-16T21:18:46.826Z,55.90
2017-06-16T21:21:20.228Z,56.30
2017-06-16T21:23:50.046Z,56.50
2017-06-16T21:26:19.743Z,56.20
2017-06-16T21:28:49.701Z,56.80
2017-06-16T21:31:19.458Z,57.10
2017-06-16T21:33:50.195Z,57.00
2017-06-16T21:36:19.895Z,57.20
2017-06-16T21:38:49.583Z,57.40
2017-06-16T21:41:20.461Z,57.40
2017-06-16T21:43:50.902Z,58.00
2017-06-16T21:46:21.618Z,59.20
2017-06-16T21:48:51.307Z,59.70
2017-06-16T21:51:21.002Z,59.70
2017-06-16T21:53:50.687Z,59.70
2017-06-16T21:56:20.373Z,60.00
2017-06-16T21:58:50.078Z,60.00
2017-06-16T22:01:20.925Z,59.70
2017-06-16T22:03:50.641Z,59.90
2017-06-16T22:06:20.346Z,60.30
2017-06-16T22:08:50.026Z,60.80
2017-06-16T22:11:19.721Z,61.20
2017-06-16T22:13:49.684Z,61.50
2017-06-16T22:16:19.445Z,61.90
2017-06-16T22:18:49.918Z,62.10
2017-06-16T22:21:19.641Z,61.70
2017-06-16T22:23:49.342Z,62.40
2017-06-16T22:26:19.126Z,63.20
2017-06-16T22:28:48.865Z,62.80
2017-06-16T22:31:18.550Z,64.40
2017-06-16T22:33:48.242Z,64.30
2017-06-16T22:36:17.970Z,64.30
2017-06-16T22:38:47.749Z,64.80
2017-06-16T22:41:18.140Z,64.80
2017-06-16T22:43:47.827Z,65.20
2017-06-16T22:46:17.534Z,66.00
2017-06-16T22:48:47.225Z,66.30
2017-06-16T22:51:17.042Z,66.80
2017-06-16T22:53:46.791Z,66.60
2017-06-16T22:56:17.090Z,67.40
2017-06-16T22:58:46.782Z,67.60
2017-06-16T23:01:17.011Z,67.10
2017-06-16T23:03:47.766Z,68.00
2017-06-16T23:06:17.566Z,68.30
2017-06-16T23:08:47.274Z,68.20
2017-06-16T23:11:16.968Z,68.20
2017-06-16T23:13:46.801Z,68.70
2017-06-16T23:16:16.506Z,68.40
2017-06-16T23:18:46.211Z,68.70
2017-06-16T23:21:15.911Z,68.70
2017-06-16T23:23:45.598Z,68.60
2017-06-16T23:26:19.213Z,69.30
2017-06-16T23:28:48.949Z,69.30
2017-06-16T23:31:18.639Z,69.70
2017-06-16T23:33:48.351Z,70.30
2017-06-16T23:36:18.074Z,70.60
2017-06-16T23:38:47.783Z,70.40
2017-06-16T23:41:17.549Z,69.90
2017-06-16T23:43:47.217Z,69.80
2017-06-16T23:46:17.059Z,70.40
2017-06-16T23:48:47.095Z,70.90
2017-06-16T23:51:17.009Z,70.70
2017-06-16T23:53:47.830Z,71.20
2017-06-16T23:56:17.942Z,71.10
2017-06-16T23:58:48.060Z,71.30
